< < Back
Terminal Aerodrome Forecast


Current Version              Previous Versions:   1  2  3  4  5  6  7  8  9  

Terminal Aerodrome Forecast

558
FTUS42 KCAE 191100
TAFAGS
TAF
KAGS 191140Z 1912/2012 14005KT 3SM -RA BR OVC003
      TEMPO 1912/1914 1 1/2SM SHRA BR
     FM191400 14010KT 4SM SHRA OVC008
     FM191600 16012G18KT P6SM VCSH BKN015 OVC100
      TEMPO 1919/1922 SHRA
     FM200300 21008KT P6SM OVC007=



Latest METAR

216
SAUS70 KWBC 191400 RRA
MTRAGS
METAR KAGS 191353Z 12005KT 3SM BR OVC004 21/20 A2987 RMK AO2 RAE18
SLP114 P0000 T02060200


USA.gov is the U.S. government's official web portal to all federal, state and local government web resources and services.